Time;durP1;ratioP1;P1;durP2;ratioP2;P2;SDS_P1;SDS_P2;PMS_P1;PMS_P2;Temp;Humidity;BMP_temperature;BMP_pressure;BME280_temperature;BME280_humidity;BME280_pressure;Samples;Min_cycle;Max_cycle;Signal;HPM_P1;HPM_P2
2022/12/03 00:00:40;;;;;;;31.10;13.60;;;2.40;99.90;;;;;;5130277;28;20046;-49
2022/12/03 00:03:05;;;;;;;28.55;13.35;;;2.40;99.90;;;;;;5130243;28;20046;-46
2022/12/03 00:05:31;;;;;;;33.25;14.40;;;2.40;99.90;;;;;;5131747;27;20130;-47
2022/12/03 00:07:57;;;;;;;27.58;12.27;;;2.40;99.90;;;;;;5134290;27;20035;-47
2022/12/03 00:10:22;;;;;;;31.95;13.75;;;2.50;99.90;;;;;;5133948;27;20039;-47
2022/12/03 00:12:48;;;;;;;30.70;13.38;;;2.50;99.90;;;;;;5134311;27;20488;-47
2022/12/03 00:15:13;;;;;;;29.25;13.15;;;2.50;99.90;;;;;;5134246;27;20394;-47
2022/12/03 00:17:39;;;;;;;33.10;14.30;;;2.60;99.90;;;;;;5134130;27;20386;-51
2022/12/03 00:20:07;;;;;;;28.45;12.68;;;2.80;99.90;;;;;;5134204;27;20561;-49
2022/12/03 00:22:33;;;;;;;29.98;13.35;;;2.50;99.90;;;;;;5114328;27;20069;-50
2022/12/03 00:24:58;;;;;;;29.42;12.95;;;2.50;99.90;;;;;;5115538;27;20074;-49
2022/12/03 00:27:24;;;;;;;32.25;13.68;;;2.60;99.90;;;;;;5115355;27;20129;-49
2022/12/03 00:29:50;;;;;;;28.63;13.27;;;2.60;99.90;;;;;;5133390;27;20483;-50
2022/12/03 00:32:15;;;;;;;32.85;14.68;;;2.60;99.90;;;;;;5133737;27;20039;-48
2022/12/03 00:34:41;;;;;;;31.95;13.43;;;2.60;99.90;;;;;;5133680;27;20116;-50
2022/12/03 00:37:07;;;;;;;32.17;13.88;;;2.50;99.90;;;;;;5132705;27;20115;-47
2022/12/03 00:39:32;;;;;;;32.97;14.18;;;2.60;99.90;;;;;;5133746;27;20047;-48
2022/12/03 00:41:58;;;;;;;33.80;14.82;;;2.60;99.90;;;;;;5131895;27;20039;-51
2022/12/03 00:44:24;;;;;;;34.83;14.95;;;2.60;99.90;;;;;;5133716;27;20031;-48
2022/12/03 00:46:49;;;;;;;32.63;14.48;;;2.60;99.90;;;;;;5133044;27;20086;-49
2022/12/03 00:49:15;;;;;;;34.15;14.00;;;2.60;99.90;;;;;;5133365;27;20290;-48
2022/12/03 00:51:41;;;;;;;31.60;13.93;;;2.50;99.90;;;;;;5127996;27;20080;-51
2022/12/03 00:54:07;;;;;;;37.92;15.43;;;2.60;99.90;;;;;;5125425;27;20110;-51
2022/12/03 00:56:32;;;;;;;37.10;14.65;;;2.60;99.90;;;;;;5111655;27;20096;-51
2022/12/03 00:58:58;;;;;;;33.75;14.40;;;2.60;99.90;;;;;;5127715;27;20063;-49
2022/12/03 01:01:24;;;;;;;31.52;15.00;;;2.60;99.90;;;;;;5113664;27;20043;-48
2022/12/03 01:03:50;;;;;;;34.45;15.15;;;2.60;99.90;;;;;;5130873;27;20394;-48
2022/12/03 01:06:15;;;;;;;30.77;14.48;;;2.60;99.90;;;;;;5127947;27;20383;-49
2022/12/03 01:08:41;;;;;;;35.63;14.30;;;2.60;99.90;;;;;;5125462;27;20038;-48
2022/12/03 01:11:36;;;;;;;34.97;14.25;;;2.60;99.90;;;;;;5111669;27;20047;-48
2022/12/03 01:13:52;;;;;;;36.20;13.93;;;2.60;99.90;;;;;;5125910;27;20516;-47
2022/12/03 01:16:18;;;;;;;39.88;14.52;;;2.60;99.90;;;;;;5107395;27;20043;-46
2022/12/03 01:18:45;;;;;;;34.38;14.40;;;2.70;99.90;;;;;;5127203;27;20332;-49
2022/12/03 01:21:11;;;;;;;36.78;15.23;;;2.60;99.90;;;;;;5125942;27;20525;-47
2022/12/03 01:23:36;;;;;;;38.70;15.98;;;2.60;99.90;;;;;;5125946;27;20043;-50
2022/12/03 01:26:02;;;;;;;35.33;14.95;;;2.60;99.90;;;;;;5128623;27;20417;-48
2022/12/03 01:28:28;;;;;;;36.78;14.57;;;2.90;99.90;;;;;;5124628;27;20034;-47
2022/12/03 01:33:38;;;;;;;37.67;14.70;;;2.60;99.90;;;;;;5127114;27;20032;-48
2022/12/03 01:36:04;;;;;;;31.55;14.57;;;2.60;99.90;;;;;;5123103;27;20031;-47
2022/12/03 01:38:29;;;;;;;36.97;14.55;;;2.60;99.90;;;;;;5129709;27;20139;-49
2022/12/03 01:40:55;;;;;;;37.35;14.82;;;2.70;99.90;;;;;;5108649;27;20044;-49
2022/12/03 01:43:21;;;;;;;37.10;15.68;;;2.70;99.90;;;;;;5123342;27;20047;-46
2022/12/03 01:45:47;;;;;;;32.08;13.63;;;2.70;99.90;;;;;;5130152;27;20093;-48
2022/12/03 01:48:18;;;;;;;35.80;14.50;;;2.70;99.90;;;;;;5127056;27;20368;-46
2022/12/03 01:50:44;;;;;;;34.20;14.20;;;2.90;99.90;;;;;;5123181;27;20095;-48
2022/12/03 01:53:14;;;;;;;35.58;14.48;;;3.10;99.90;;;;;;5111019;27;20031;-49
2022/12/03 01:55:42;;;;;;;33.28;15.55;;;2.70;99.90;;;;;;5125689;27;20036;-47
2022/12/03 01:58:11;;;;;;;40.08;16.70;;;2.70;99.90;;;;;;5123736;27;20066;-46
2022/12/03 02:00:37;;;;;;;41.90;16.15;;;2.80;99.90;;;;;;5129366;27;20039;-51
2022/12/03 02:03:12;;;;;;;35.88;15.38;;;2.70;99.90;;;;;;5126209;27;20043;-49
2022/12/03 02:05:37;;;;;;;37.63;15.50;;;2.80;99.90;;;;;;5123511;27;20070;-49
2022/12/03 02:08:25;;;;;;;36.85;15.32;;;2.80;99.90;;;;;;5128672;27;20096;-48
2022/12/03 02:10:51;;;;;;;33.67;14.98;;;2.80;99.90;;;;;;5106054;27;20160;-49
2022/12/03 02:13:17;;;;;;;34.35;14.93;;;2.80;99.90;;;;;;5124574;27;20502;-48
2022/12/03 02:15:42;;;;;;;38.10;16.27;;;2.70;99.90;;;;;;5128178;27;20035;-47
2022/12/03 02:18:08;;;;;;;37.35;15.57;;;2.70;99.90;;;;;;5124967;27;20027;-47
2022/12/03 02:21:00;;;;;;;36.17;15.90;;;2.80;99.90;;;;;;5106191;27;20050;-49
2022/12/03 02:23:40;;;;;;;36.42;14.48;;;2.80;99.90;;;;;;5128525;27;20144;-49
2022/12/03 02:26:06;;;;;;;35.05;15.70;;;2.80;99.90;;;;;;5131679;27;20126;-49
2022/12/03 02:28:32;;;;;;;37.10;14.70;;;3.00;99.90;;;;;;5131519;27;20119;-50
2022/12/03 02:30:58;;;;;;;36.92;15.18;;;2.80;99.90;;;;;;5131497;27;20504;-48
2022/12/03 02:33:39;;;;;;;34.40;15.73;;;2.80;99.90;;;;;;5085620;27;20043;-47
2022/12/03 02:36:05;;;;;;;32.58;14.70;;;3.10;99.90;;;;;;5131649;27;20133;-49
2022/12/03 02:38:33;;;;;;;35.15;15.23;;;2.80;99.90;;;;;;5131939;27;20430;-51
2022/12/03 02:41:06;;;;;;;35.33;15.68;;;2.90;99.90;;;;;;5130886;27;20039;-49
2022/12/03 02:43:32;;;;;;;34.50;16.23;;;2.90;99.90;;;;;;5131422;27;20039;-52
2022/12/03 02:46:00;;;;;;;35.80;16.45;;;2.90;99.90;;;;;;5131393;27;20073;-49
2022/12/03 02:48:33;;;;;;;35.45;15.63;;;2.80;99.90;;;;;;5131528;27;20046;-52
2022/12/03 02:51:03;;;;;;;33.85;16.08;;;2.90;99.90;;;;;;5113025;27;20481;-48
2022/12/03 02:53:36;;;;;;;31.50;15.27;;;2.90;99.90;;;;;;5130419;27;20095;-48
2022/12/03 02:56:03;;;;;;;32.90;15.05;;;2.90;99.90;;;;;;5131264;27;20058;-49
2022/12/03 02:58:31;;;;;;;32.70;15.85;;;2.90;99.90;;;;;;5130637;27;20065;-47
2022/12/03 03:00:58;;;;;;;33.90;15.52;;;2.90;99.90;;;;;;5130916;27;20043;-47
2022/12/03 03:03:26;;;;;;;32.72;16.15;;;2.90;99.90;;;;;;5130798;27;20482;-48
2022/12/03 03:05:52;;;;;;;34.90;16.00;;;3.10;99.90;;;;;;5130854;27;20486;-47
2022/12/03 03:08:18;;;;;;;32.38;15.27;;;2.90;99.90;;;;;;5130836;27;20478;-47
2022/12/03 03:10:46;;;;;;;31.08;15.52;;;2.90;99.90;;;;;;5130335;27;20043;-49
2022/12/03 03:13:14;;;;;;;32.90;14.88;;;2.90;99.90;;;;;;5131154;27;20049;-47
2022/12/03 03:15:41;;;;;;;30.90;15.48;;;2.90;99.90;;;;;;5131502;27;20027;-48
2022/12/03 03:18:08;;;;;;;32.45;15.15;;;2.90;99.90;;;;;;5111684;27;20035;-47
2022/12/03 03:20:35;;;;;;;30.00;14.07;;;2.90;99.90;;;;;;5130687;27;20456;-48
2022/12/03 03:23:10;;;;;;;27.30;13.95;;;3.00;99.90;;;;;;5130254;27;20091;-48
2022/12/03 03:25:37;;;;;;;30.23;14.95;;;2.90;99.90;;;;;;5130355;27;20035;-47
2022/12/03 03:28:04;;;;;;;32.00;14.25;;;2.90;99.90;;;;;;5130450;27;20063;-47
2022/12/03 03:30:30;;;;;;;31.52;14.63;;;3.00;99.90;;;;;;5130642;27;20035;-48
2022/12/03 03:32:56;;;;;;;32.13;14.70;;;2.90;99.90;;;;;;5111770;27;20243;-46
2022/12/03 03:35:24;;;;;;;33.03;15.27;;;2.90;99.90;;;;;;5130417;27;20027;-48
2022/12/03 03:37:51;;;;;;;32.35;15.27;;;2.90;99.90;;;;;;5129960;27;20126;-48
2022/12/03 03:40:17;;;;;;;30.25;14.80;;;2.90;99.90;;;;;;5111108;27;20104;-47
2022/12/03 03:42:42;;;;;;;29.92;14.15;;;2.90;99.90;;;;;;5130130;27;20459;-48
2022/12/03 03:45:08;;;;;;;31.52;14.98;;;2.90;99.90;;;;;;5130393;27;20031;-50
2022/12/03 03:47:34;;;;;;;28.38;15.20;;;2.90;99.90;;;;;;5130376;28;20047;-49
2022/12/03 03:50:01;;;;;;;33.53;15.85;;;2.90;99.90;;;;;;5130433;28;20110;-49
2022/12/03 03:52:27;;;;;;;31.88;15.30;;;2.90;99.90;;;;;;5129665;28;20098;-48
2022/12/03 03:54:53;;;;;;;27.90;13.73;;;2.90;99.90;;;;;;5130082;28;20035;-50
2022/12/03 03:57:18;;;;;;;32.38;15.45;;;2.90;99.90;;;;;;5130076;28;20039;-47
2022/12/03 03:59:44;;;;;;;31.85;15.77;;;2.90;99.90;;;;;;5130401;28;20372;-49
2022/12/03 04:02:21;;;;;;;34.42;14.50;;;2.90;99.90;;;;;;5111467;28;20103;-50
2022/12/03 04:04:48;;;;;;;31.05;15.38;;;2.90;99.90;;;;;;5129734;28;20042;-48
2022/12/03 04:07:15;;;;;;;35.05;16.02;;;2.90;99.90;;;;;;5129787;28;20031;-51
2022/12/03 04:09:40;;;;;;;33.10;15.63;;;2.90;99.90;;;;;;5129893;28;20035;-47
2022/12/03 04:14:50;;;;;;;35.17;15.45;;;2.80;99.90;;;;;;5129835;28;20086;-48
2022/12/03 04:17:16;;;;;;;33.33;16.38;;;2.90;99.90;;;;;;5129890;28;20070;-48
2022/12/03 04:19:41;;;;;;;33.65;16.05;;;2.90;99.90;;;;;;5129519;28;20058;-49
2022/12/03 04:28:47;;;;;;;32.40;15.35;;;2.90;99.90;;;;;;5130136;28;20050;-52
2022/12/03 04:30:21;;;;;;;35.92;16.65;;;2.80;99.90;;;;;;5130786;28;20436;-50
2022/12/03 04:35:43;;;;;;;30.42;14.55;;;2.80;99.90;;;;;;5130103;28;20042;-49
2022/12/03 04:38:14;;;;;;;34.83;14.82;;;2.80;99.90;;;;;;5129218;28;20104;-47
2022/12/03 04:43:26;;;;;;;36.80;16.58;;;2.80;99.90;;;;;;5130188;28;20139;-50
2022/12/03 04:45:51;;;;;;;31.25;15.63;;;2.70;99.90;;;;;;5130568;28;20043;-51
2022/12/03 04:48:17;;;;;;;32.17;15.10;;;2.70;99.90;;;;;;5111326;28;20031;-51
2022/12/03 04:50:43;;;;;;;34.75;15.93;;;2.70;99.90;;;;;;5068900;27;20027;-49
2022/12/03 04:53:08;;;;;;;33.90;15.18;;;2.70;99.90;;;;;;5132949;27;20031;-48
2022/12/03 04:55:34;;;;;;;35.08;16.00;;;2.70;99.90;;;;;;5098159;27;20027;-49
2022/12/03 04:58:00;;;;;;;29.10;14.85;;;2.70;99.90;;;;;;5133838;27;20038;-49
2022/12/03 05:00:26;;;;;;;32.88;14.90;;;2.60;99.90;;;;;;5134106;27;20114;-48
2022/12/03 05:02:51;;;;;;;32.83;15.77;;;2.60;99.90;;;;;;5132989;27;20047;-48
2022/12/03 05:05:17;;;;;;;31.80;15.15;;;2.60;99.90;;;;;;5133160;27;20042;-50
2022/12/03 05:07:43;;;;;;;34.10;15.98;;;3.20;99.90;;;;;;5133022;27;20550;-48
2022/12/03 05:10:10;;;;;;;34.00;15.98;;;2.60;99.90;;;;;;5128532;27;20039;-50
2022/12/03 05:12:36;;;;;;;33.60;15.25;;;2.60;99.90;;;;;;5132620;27;20474;-49
2022/12/03 05:15:03;;;;;;;33.92;15.95;;;2.60;99.90;;;;;;5133195;27;20043;-49
2022/12/03 05:17:29;;;;;;;36.85;16.20;;;2.60;99.90;;;;;;5133117;27;20070;-51
2022/12/03 05:22:39;;;;;;;35.30;15.52;;;2.50;99.90;;;;;;5133391;27;20043;-46
2022/12/03 05:25:05;;;;;;;34.95;15.75;;;2.60;99.90;;;;;;5113397;27;20466;-48
2022/12/03 05:27:31;;;;;;;35.78;16.35;;;2.60;99.90;;;;;;5114301;27;20455;-50
2022/12/03 05:29:56;;;;;;;32.50;15.00;;;2.60;99.90;;;;;;5132509;27;20121;-48
2022/12/03 05:32:28;;;;;;;28.63;14.38;;;2.50;99.90;;;;;;5132904;27;20043;-47
2022/12/03 05:34:53;;;;;;;30.52;14.45;;;2.60;99.90;;;;;;5114125;27;20050;-50
2022/12/03 05:37:19;;;;;;;35.75;15.65;;;2.50;99.90;;;;;;5132018;27;20421;-48
2022/12/03 05:39:45;;;;;;;35.80;15.70;;;2.50;99.90;;;;;;5130927;27;20444;-48
2022/12/03 05:44:54;;;;;;;32.53;14.70;;;2.50;99.90;;;;;;5131651;27;20043;-48
2022/12/03 05:47:20;;;;;;;32.17;16.05;;;2.50;99.90;;;;;;5132379;27;20080;-47
2022/12/03 05:49:46;;;;;;;34.15;15.85;;;2.50;99.90;;;;;;5132558;27;20043;-46
2022/12/03 05:52:11;;;;;;;31.23;14.93;;;2.50;99.90;;;;;;5132153;27;20486;-49
2022/12/03 05:54:37;;;;;;;33.38;14.73;;;2.40;99.90;;;;;;5130997;27;20114;-48
2022/12/03 05:57:03;;;;;;;31.85;14.32;;;2.50;99.90;;;;;;5097394;27;20307;-46
2022/12/03 05:59:28;;;;;;;32.33;15.30;;;2.50;99.90;;;;;;5132761;27;20027;-47
2022/12/03 06:01:54;;;;;;;32.55;15.65;;;2.50;99.90;;;;;;5132160;27;20554;-46
2022/12/03 06:04:20;;;;;;;36.13;16.17;;;2.60;99.90;;;;;;5131073;27;20058;-46
2022/12/03 06:06:45;;;;;;;34.50;16.40;;;2.40;99.90;;;;;;5122870;27;20092;-47
2022/12/03 06:09:11;;;;;;;33.38;16.63;;;2.50;99.90;;;;;;5112808;27;20040;-50
2022/12/03 06:11:38;;;;;;;30.52;14.90;;;2.40;99.90;;;;;;5120667;27;20531;-50
2022/12/03 06:14:04;;;;;;;35.53;16.52;;;2.50;99.90;;;;;;5100276;27;20096;-49
2022/12/03 06:16:30;;;;;;;35.00;15.90;;;2.90;99.90;;;;;;5121825;27;20443;-46
2022/12/03 06:18:56;;;;;;;32.30;15.45;;;2.40;99.90;;;;;;5120732;27;20058;-47
2022/12/03 06:21:21;;;;;;;33.55;16.20;;;2.40;99.90;;;;;;5121743;27;20027;-48
2022/12/03 06:23:47;;;;;;;36.08;16.30;;;3.20;99.90;;;;;;5111215;27;20047;-48
2022/12/03 06:26:13;;;;;;;34.90;16.20;;;2.40;99.90;;;;;;5129653;27;20380;-49
2022/12/03 06:28:44;;;;;;;34.83;15.68;;;2.50;99.90;;;;;;5125786;27;20570;-49
2022/12/03 06:31:10;;;;;;;37.85;16.90;;;2.40;99.90;;;;;;5121118;27;20043;-47
2022/12/03 06:33:35;;;;;;;33.25;15.38;;;2.40;99.90;;;;;;5130330;27;20502;-48
2022/12/03 06:36:01;;;;;;;33.22;16.00;;;2.40;99.90;;;;;;5130198;27;20052;-47
2022/12/03 06:38:27;;;;;;;35.67;16.00;;;2.40;99.90;;;;;;5129628;27;20043;-47
2022/12/03 06:40:52;;;;;;;33.42;15.93;;;2.40;99.90;;;;;;5130341;27;20211;-48
2022/12/03 06:43:18;;;;;;;34.25;15.82;;;2.40;99.90;;;;;;5130069;27;20031;-49
2022/12/03 06:45:44;;;;;;;34.22;15.50;;;2.40;99.90;;;;;;5094780;27;20041;-48
2022/12/03 06:48:09;;;;;;;32.70;15.45;;;2.40;99.90;;;;;;5111788;27;20043;-48
2022/12/03 06:50:35;;;;;;;34.25;16.10;;;2.40;99.90;;;;;;5111928;27;20691;-46
2022/12/03 06:53:01;;;;;;;34.80;16.13;;;2.40;99.90;;;;;;5112746;27;20180;-46
2022/12/03 06:55:27;;;;;;;35.05;17.02;;;2.40;99.90;;;;;;5113468;27;20031;-48
2022/12/03 06:57:52;;;;;;;33.00;15.60;;;2.40;99.90;;;;;;5131228;27;20076;-48
2022/12/03 07:00:19;;;;;;;35.28;16.95;;;2.40;99.90;;;;;;5112188;27;20397;-52
2022/12/03 07:02:44;;;;;;;35.17;17.13;;;2.30;99.90;;;;;;5130719;27;20047;-50
2022/12/03 07:05:10;;;;;;;35.72;16.88;;;2.40;99.90;;;;;;5131002;27;20041;-49
2022/12/03 07:07:36;;;;;;;37.50;18.25;;;2.30;99.90;;;;;;5131397;27;20199;-50
2022/12/03 07:10:02;;;;;;;36.42;17.17;;;2.40;99.90;;;;;;5131244;27;20046;-49
2022/12/03 07:12:29;;;;;;;39.58;19.38;;;2.50;99.90;;;;;;5112203;27;20058;-50
2022/12/03 07:14:54;;;;;;;39.95;17.90;;;2.30;99.90;;;;;;5130043;27;20035;-48
2022/12/03 07:17:20;;;;;;;37.95;16.92;;;2.40;99.90;;;;;;5130387;27;20501;-49
2022/12/03 07:19:46;;;;;;;40.55;17.25;;;2.60;99.90;;;;;;5130875;27;20035;-51
2022/12/03 07:22:11;;;;;;;43.03;18.75;;;2.40;99.90;;;;;;5112777;27;20486;-47
2022/12/03 07:24:37;;;;;;;36.53;17.33;;;2.30;99.90;;;;;;5130214;27;20131;-49
2022/12/03 07:27:03;;;;;;;39.95;16.90;;;2.40;99.90;;;;;;5112178;27;20127;-49
2022/12/03 07:29:28;;;;;;;35.85;17.60;;;2.80;99.90;;;;;;5130602;27;20042;-48
2022/12/03 07:31:54;;;;;;;39.00;17.98;;;2.40;99.90;;;;;;5130360;27;20035;-48
2022/12/03 07:34:20;;;;;;;38.97;17.73;;;2.40;99.90;;;;;;5131012;27;20034;-51
2022/12/03 07:36:46;;;;;;;40.92;17.38;;;2.30;99.90;;;;;;5130949;27;20046;-50
2022/12/03 07:39:12;;;;;;;36.75;17.90;;;2.30;99.90;;;;;;5130757;27;20036;-50
2022/12/03 07:41:38;;;;;;;41.80;18.48;;;2.40;99.90;;;;;;5111815;28;20039;-51
2022/12/03 07:44:04;;;;;;;41.90;19.25;;;2.60;99.90;;;;;;5130374;27;20092;-50
2022/12/03 07:46:29;;;;;;;38.60;18.75;;;2.40;99.90;;;;;;5130398;27;20039;-47
2022/12/03 07:48:55;;;;;;;41.25;19.23;;;2.30;99.90;;;;;;5130097;27;20095;-46
2022/12/03 07:51:21;;;;;;;41.47;18.98;;;2.40;99.90;;;;;;5130223;28;20047;-46
2022/12/03 07:53:46;;;;;;;42.30;20.17;;;2.30;99.90;;;;;;5130009;28;20096;-46
2022/12/03 07:56:12;;;;;;;43.70;20.80;;;2.30;99.90;;;;;;5111629;28;20039;-49
2022/12/03 07:58:38;;;;;;;43.00;20.08;;;2.20;99.90;;;;;;5129943;28;20117;-47
2022/12/03 08:01:03;;;;;;;42.22;20.20;;;2.20;99.90;;;;;;5111799;28;20045;-49
2022/12/03 08:03:29;;;;;;;41.92;18.88;;;2.20;99.90;;;;;;5111911;28;20087;-48
2022/12/03 08:05:55;;;;;;;47.30;18.67;;;2.10;99.90;;;;;;5130290;28;20444;-47
2022/12/03 08:08:20;;;;;;;45.28;19.05;;;2.10;99.90;;;;;;5111934;28;20042;-49
2022/12/03 08:10:46;;;;;;;42.90;18.88;;;2.00;99.90;;;;;;5130029;28;20081;-46
2022/12/03 08:13:13;;;;;;;40.92;18.25;;;2.00;99.90;;;;;;5111918;28;20035;-47
2022/12/03 08:15:39;;;;;;;42.95;19.48;;;2.00;99.90;;;;;;5130224;28;20038;-47
2022/12/03 08:18:20;;;;;;;42.78;19.30;;;2.00;99.90;;;;;;5130431;28;20036;-50
2022/12/03 08:20:48;;;;;;;42.30;18.17;;;2.00;99.90;;;;;;5130217;28;20095;-47
2022/12/03 08:23:24;;;;;;;44.10;19.58;;;1.90;99.90;;;;;;5129505;28;20041;-48
2022/12/03 08:25:51;;;;;;;46.08;18.60;;;1.90;99.90;;;;;;5130348;27;20375;-49
2022/12/03 08:28:25;;;;;;;42.13;17.95;;;1.90;99.90;;;;;;5133847;27;20031;-46
2022/12/03 08:31:07;;;;;;;46.80;19.27;;;2.00;99.90;;;;;;5134478;27;20386;-47
2022/12/03 08:33:34;;;;;;;39.95;18.98;;;2.00;99.90;;;;;;5133896;27;20502;-49
2022/12/03 08:36:21;;;;;;;42.15;19.08;;;1.90;99.90;;;;;;5133861;27;20110;-50
2022/12/03 08:38:53;;;;;;;42.50;17.65;;;1.90;99.90;;;;;;5133257;27;20058;-51
2022/12/03 08:42:40;;;;;;;44.70;18.40;;;1.90;99.90;;;;;;5115546;27;20104;-48
2022/12/03 08:44:28;;;;;;;43.88;18.35;;;1.90;99.90;;;;;;5134135;27;20051;-51
2022/12/03 08:47:05;;;;;;;46.22;19.05;;;1.90;99.90;;;;;;5133857;27;20046;-46
2022/12/03 08:49:31;;;;;;;41.80;18.88;;;1.90;99.90;;;;;;5094121;27;20066;-48
2022/12/03 08:51:59;;;;;;;45.90;19.52;;;1.90;99.90;;;;;;5133034;27;20473;-49
2022/12/03 08:54:26;;;;;;;47.55;19.33;;;1.90;99.90;;;;;;5133342;27;20110;-47
2022/12/03 08:56:52;;;;;;;41.13;18.25;;;1.90;99.90;;;;;;5133398;27;20027;-48
2022/12/03 08:59:31;;;;;;;45.58;18.98;;;1.90;99.90;;;;;;5133057;27;20037;-49
2022/12/03 09:01:58;;;;;;;45.65;18.55;;;1.90;99.90;;;;;;5133354;27;20043;-48
2022/12/03 09:04:26;;;;;;;44.70;17.92;;;1.90;99.90;;;;;;5133178;27;20046;-51
2022/12/03 09:06:52;;;;;;;43.42;19.23;;;1.90;99.90;;;;;;5132919;27;20042;-46
2022/12/03 09:09:18;;;;;;;41.55;18.65;;;1.90;99.90;;;;;;5133297;27;20865;-47
2022/12/03 09:11:45;;;;;;;40.95;18.13;;;1.90;99.90;;;;;;5133153;27;20035;-48
2022/12/03 09:14:11;;;;;;;41.88;19.17;;;1.90;99.90;;;;;;5132430;27;20035;-47
2022/12/03 09:16:37;;;;;;;46.33;19.38;;;1.90;99.90;;;;;;5133033;27;20027;-48
2022/12/03 09:19:03;;;;;;;45.60;19.90;;;1.90;99.90;;;;;;5132808;27;20496;-50
2022/12/03 09:21:28;;;;;;;40.83;17.65;;;1.90;99.90;;;;;;5132771;27;20041;-48
2022/12/03 09:23:54;;;;;;;43.88;19.63;;;1.90;99.90;;;;;;5132664;27;20125;-48
2022/12/03 09:26:20;;;;;;;46.80;20.15;;;1.90;99.90;;;;;;5133143;27;20509;-50
2022/12/03 09:28:47;;;;;;;42.78;18.73;;;1.90;99.90;;;;;;5133599;27;20039;-50
2022/12/03 09:31:13;;;;;;;43.65;18.98;;;1.90;99.90;;;;;;5133130;27;20122;-50
2022/12/03 09:33:39;;;;;;;44.03;19.02;;;1.90;99.90;;;;;;5132640;27;20118;-47
2022/12/03 09:36:05;;;;;;;40.50;18.70;;;1.90;99.90;;;;;;5132548;27;20122;-50
2022/12/03 09:38:31;;;;;;;42.75;19.17;;;1.90;99.90;;;;;;5131496;27;20452;-50
2022/12/03 09:40:58;;;;;;;42.38;18.40;;;2.00;99.90;;;;;;5132604;27;20085;-50
2022/12/03 09:43:25;;;;;;;40.00;18.55;;;2.00;99.90;;;;;;5132696;27;20039;-51
2022/12/03 09:45:51;;;;;;;45.35;19.50;;;1.90;99.90;;;;;;5132436;27;20481;-48
2022/12/03 09:48:20;;;;;;;41.83;19.20;;;1.90;99.90;;;;;;5132490;27;20090;-50
2022/12/03 09:50:46;;;;;;;42.78;18.88;;;1.90;99.90;;;;;;5132407;27;20027;-48
2022/12/03 09:53:20;;;;;;;42.05;19.50;;;1.90;99.90;;;;;;5132687;27;20047;-51
2022/12/03 09:55:47;;;;;;;41.13;19.20;;;1.90;99.90;;;;;;5132743;27;20027;-50
2022/12/03 09:58:16;;;;;;;40.55;18.35;;;1.90;99.90;;;;;;5112686;27;20119;-50
2022/12/03 10:00:47;;;;;;;41.90;18.65;;;1.90;99.90;;;;;;5131909;27;20039;-47
2022/12/03 10:03:14;;;;;;;40.80;18.23;;;1.90;99.90;;;;;;5132256;27;20163;-47
2022/12/03 10:05:40;;;;;;;43.38;18.95;;;1.90;99.90;;;;;;5132272;27;20051;-48
2022/12/03 10:08:10;;;;;;;41.03;18.20;;;1.90;99.90;;;;;;5132087;27;20047;-47
2022/12/03 10:10:37;;;;;;;42.85;19.23;;;1.90;99.90;;;;;;5131331;27;20065;-48
2022/12/03 10:13:04;;;;;;;44.78;19.98;;;1.90;99.90;;;;;;5132040;27;20410;-47
2022/12/03 10:15:31;;;;;;;46.72;19.90;;;1.90;99.90;;;;;;5113369;27;20038;-49
2022/12/03 10:17:57;;;;;;;45.88;20.27;;;1.90;99.90;;;;;;5132608;27;20390;-50
2022/12/03 10:20:24;;;;;;;44.15;18.67;;;1.90;99.90;;;;;;5132151;27;20031;-53
2022/12/03 10:22:50;;;;;;;38.88;18.30;;;2.00;99.90;;;;;;5131356;27;20045;-47
2022/12/03 10:25:19;;;;;;;42.20;18.30;;;2.00;99.90;;;;;;5131571;27;20047;-48
2022/12/03 10:27:59;;;;;;;47.80;19.85;;;2.00;99.90;;;;;;5131675;27;20401;-48
2022/12/03 10:30:27;;;;;;;42.38;19.33;;;1.90;99.90;;;;;;5131416;27;20083;-49
2022/12/03 10:32:54;;;;;;;36.97;16.45;;;1.90;99.90;;;;;;5131380;27;20042;-49
2022/12/03 10:35:47;;;;;;;40.15;19.00;;;2.00;99.90;;;;;;5131422;27;20035;-48
2022/12/03 10:38:23;;;;;;;39.38;18.73;;;1.90;99.90;;;;;;5126235;27;20514;-46
2022/12/03 10:40:49;;;;;;;43.17;18.23;;;2.00;99.90;;;;;;5131373;27;20382;-46
2022/12/03 10:43:17;;;;;;;43.38;18.75;;;2.00;99.90;;;;;;5131516;27;20375;-47
2022/12/03 10:45:59;;;;;;;38.63;17.38;;;2.20;99.90;;;;;;5131103;27;20371;-47
2022/12/03 10:48:26;;;;;;;43.08;18.38;;;2.00;99.90;;;;;;5131194;27;20398;-47
2022/12/03 10:51:03;;;;;;;39.47;18.08;;;1.90;99.90;;;;;;5131489;27;20034;-48
2022/12/03 10:53:35;;;;;;;46.63;19.23;;;2.00;99.90;;;;;;5131595;27;20035;-46
2022/12/03 10:56:04;;;;;;;46.40;19.70;;;2.00;99.90;;;;;;5130708;27;20487;-47
2022/12/03 10:58:34;;;;;;;42.38;19.52;;;2.00;99.90;;;;;;5131199;27;20072;-47
2022/12/03 11:01:02;;;;;;;42.22;18.27;;;2.00;99.90;;;;;;5131133;27;20023;-48
2022/12/03 11:03:33;;;;;;;43.75;18.35;;;2.10;99.90;;;;;;5131193;27;20031;-47
2022/12/03 11:06:00;;;;;;;45.80;18.80;;;2.10;99.90;;;;;;5130705;27;20522;-47
2022/12/03 11:08:30;;;;;;;46.42;19.65;;;2.10;99.90;;;;;;5130861;27;20038;-46
2022/12/03 11:11:01;;;;;;;43.05;19.35;;;2.10;99.90;;;;;;5130432;27;20050;-47
2022/12/03 11:13:31;;;;;;;41.40;18.27;;;2.00;99.90;;;;;;5131107;27;20043;-46
2022/12/03 11:15:58;;;;;;;40.75;18.02;;;2.10;99.90;;;;;;5131056;27;20463;-46
2022/12/03 11:18:36;;;;;;;45.70;20.23;;;2.10;99.90;;;;;;5112739;27;20545;-47
2022/12/03 11:21:12;;;;;;;48.38;19.70;;;2.20;99.90;;;;;;5130860;27;20031;-47
2022/12/03 11:23:44;;;;;;;42.28;18.58;;;2.10;99.90;;;;;;5129938;27;20069;-46
2022/12/03 11:26:37;;;;;;;45.83;20.10;;;2.20;99.90;;;;;;5130727;27;20042;-48
2022/12/03 11:29:12;;;;;;;43.80;19.08;;;2.20;99.90;;;;;;5129969;27;20046;-47
2022/12/03 11:31:45;;;;;;;49.13;20.63;;;2.20;99.90;;;;;;5130121;27;20050;-47
2022/12/03 11:34:17;;;;;;;41.47;19.10;;;2.20;99.90;;;;;;5130596;27;20038;-48
2022/12/03 11:37:11;;;;;;;39.13;19.08;;;2.20;99.90;;;;;;5130532;27;20084;-49
2022/12/03 11:39:51;;;;;;;44.30;19.83;;;2.20;99.90;;;;;;5130532;27;20047;-49
2022/12/03 11:42:25;;;;;;;49.78;20.33;;;4.20;99.90;;;;;;5129084;27;20482;-50
2022/12/03 11:45:03;;;;;;;44.88;19.70;;;2.70;99.90;;;;;;5130397;27;20420;-51
2022/12/03 11:47:37;;;;;;;45.05;20.02;;;2.30;99.90;;;;;;5111233;28;20057;-52
2022/12/03 11:50:21;;;;;;;46.40;20.08;;;2.30;99.90;;;;;;5130014;27;20039;-48
2022/12/03 11:52:58;;;;;;;43.55;19.33;;;2.20;99.90;;;;;;5129219;28;20042;-49
2022/12/03 11:55:36;;;;;;;45.03;20.20;;;2.30;99.90;;;;;;5130579;28;20456;-49
2022/12/03 11:58:30;;;;;;;44.85;20.02;;;2.20;99.90;;;;;;5112251;28;20062;-50
2022/12/03 12:00:58;;;;;;;45.92;20.88;;;2.20;99.90;;;;;;5129506;27;20035;-49
2022/12/03 12:03:42;;;;;;;49.65;21.35;;;2.20;99.90;;;;;;5135222;27;20035;-51
2022/12/03 12:06:14;;;;;;;45.90;20.00;;;2.30;99.90;;;;;;5135006;27;20043;-49
2022/12/03 12:08:54;;;;;;;46.03;22.00;;;2.30;99.90;;;;;;5134166;27;20062;-47
2022/12/03 12:11:35;;;;;;;49.80;20.27;;;2.50;99.90;;;;;;5134412;27;20488;-50
2022/12/03 12:14:05;;;;;;;43.85;19.20;;;2.40;99.90;;;;;;5115762;27;20057;-51
2022/12/03 12:16:49;;;;;;;47.17;20.80;;;2.30;99.90;;;;;;5134781;27;20521;-49
2022/12/03 12:19:34;;;;;;;44.42;20.38;;;2.30;99.90;;;;;;5135091;27;20043;-50
2022/12/03 12:22:16;;;;;;;44.25;20.13;;;2.30;99.90;;;;;;5134087;27;20402;-48
2022/12/03 12:24:45;;;;;;;45.15;20.63;;;2.30;99.90;;;;;;5133137;27;20038;-47
2022/12/03 12:27:19;;;;;;;44.08;20.60;;;2.20;99.90;;;;;;5134216;27;20039;-48
2022/12/03 12:29:56;;;;;;;48.65;19.90;;;2.20;99.90;;;;;;5132963;27;20114;-46
2022/12/03 12:32:26;;;;;;;46.55;20.75;;;2.30;99.90;;;;;;5134006;27;20470;-47
2022/12/03 12:34:56;;;;;;;45.83;20.60;;;2.30;99.90;;;;;;5133787;27;20028;-48
2022/12/03 12:37:39;;;;;;;48.65;22.00;;;2.30;99.90;;;;;;5132214;27;20039;-47
2022/12/03 12:40:14;;;;;;;46.17;21.13;;;2.20;99.90;;;;;;5133285;27;20043;-46
2022/12/03 12:42:48;;;;;;;47.08;21.25;;;2.20;99.90;;;;;;5133463;27;20051;-49
2022/12/03 12:45:20;;;;;;;43.78;21.38;;;2.20;99.90;;;;;;5115339;27;20117;-51
2022/12/03 12:48:02;;;;;;;48.80;21.35;;;2.20;99.90;;;;;;5133423;27;20133;-49
2022/12/03 12:50:31;;;;;;;46.92;21.88;;;2.20;99.90;;;;;;5133547;27;20042;-47
2022/12/03 12:53:27;;;;;;;49.90;21.75;;;2.20;99.90;;;;;;5133075;27;20035;-47
2022/12/03 12:56:08;;;;;;;43.10;20.95;;;2.20;99.90;;;;;;5133374;27;20035;-49
2022/12/03 12:58:35;;;;;;;50.38;21.00;;;2.20;99.90;;;;;;5132806;27;20035;-50
2022/12/03 13:01:05;;;;;;;46.47;21.33;;;2.20;99.90;;;;;;5133912;27;20019;-51
2022/12/03 13:03:38;;;;;;;46.55;21.88;;;2.20;99.90;;;;;;5133361;27;20031;-49
2022/12/03 13:06:04;;;;;;;43.33;20.35;;;2.20;99.90;;;;;;5133481;27;20039;-49